Time;durP1;ratioP1;P1;durP2;ratioP2;P2;SDS_P1;SDS_P2;PMS_P1;PMS_P2;Temp;Humidity;BMP_temperature;BMP_pressure;BME280_temperature;BME280_humidity;BME280_pressure;Samples;Min_cycle;Max_cycle;Signal;HPM_P1;HPM_P2
2023/01/29 00:01:22;;;;;;;94.83;39.30;;;;;;;-3.24;84.92;102671.00;5113581;28;20422;-67
2023/01/29 00:03:51;;;;;;;86.00;39.07;;;;;;;-3.30;84.01;102670.91;5113290;28;20182;-68
2023/01/29 00:06:17;;;;;;;87.37;38.30;;;;;;;-3.34;83.26;102666.47;5113818;28;20181;-68
2023/01/29 00:08:45;;;;;;;78.10;37.83;;;;;;;-3.33;84.32;102667.34;5113475;28;20838;-68
2023/01/29 00:11:12;;;;;;;76.80;37.67;;;;;;;-3.32;84.33;102661.25;5113251;28;20425;-68
2023/01/29 00:13:38;;;;;;;84.40;38.63;;;;;;;-3.31;85.36;102658.66;5113445;28;20189;-68
2023/01/29 00:16:05;;;;;;;85.60;37.83;;;;;;;-3.22;84.29;102655.31;5113124;28;20459;-68
2023/01/29 00:18:31;;;;;;;87.93;37.87;;;;;;;-3.30;83.81;102659.56;5113035;28;20959;-68
2023/01/29 00:20:58;;;;;;;84.70;38.70;;;;;;;-3.26;85.22;102656.97;5113331;28;20924;-68
2023/01/29 00:23:24;;;;;;;78.53;36.90;;;;;;;-3.29;84.62;102648.22;5112968;28;20445;-68
2023/01/29 00:25:51;;;;;;;86.73;39.07;;;;;;;-3.34;85.04;102642.88;5115021;28;20229;-68
2023/01/29 00:28:17;;;;;;;107.07;44.10;;;;;;;-3.34;85.55;102649.88;5116945;28;20807;-68
2023/01/29 00:30:43;;;;;;;90.40;42.93;;;;;;;-3.36;84.88;102654.19;5116941;28;20421;-68
2023/01/29 00:33:12;;;;;;;94.87;39.40;;;;;;;-3.38;84.59;102654.16;5116738;28;20876;-68
2023/01/29 00:35:39;;;;;;;94.23;41.03;;;;;;;-3.38;84.25;102648.91;5117213;28;20429;-68
2023/01/29 00:38:06;;;;;;;89.17;41.27;;;;;;;-3.39;84.33;102648.91;5115472;28;20511;-67
2023/01/29 00:44:56;;;;;;;80.27;38.07;;;;;;;-3.42;84.79;102642.78;5117090;28;20872;-67
2023/01/29 00:46:06;;;;;;;93.57;41.40;;;;;;;-3.46;85.73;102635.69;5116808;28;20426;-67
2023/01/29 00:48:33;;;;;;;99.07;40.33;;;;;;;-3.48;84.38;102641.78;5115039;28;20544;-67
2023/01/29 00:51:01;;;;;;;84.27;38.67;;;;;;;-3.50;85.03;102646.97;5115334;28;20935;-67
2023/01/29 00:53:27;;;;;;;96.90;39.03;;;;;;;-3.52;85.14;102651.34;5116292;28;20426;-67
2023/01/29 00:55:55;;;;;;;86.03;39.37;;;;;;;-3.55;85.81;102647.75;5114895;28;20829;-67
2023/01/29 00:58:27;;;;;;;93.53;40.73;;;;;;;-3.55;84.50;102647.75;5116404;28;20811;-67
2023/01/29 01:00:54;;;;;;;102.43;42.50;;;;;;;-3.54;84.42;102652.16;5116697;28;20414;-67
2023/01/29 01:03:21;;;;;;;85.40;42.10;;;;;;;-3.50;85.06;102657.44;5116324;28;20426;-67
2023/01/29 01:05:47;;;;;;;97.77;42.37;;;;;;;-3.44;84.57;102648.84;5116024;28;20426;-67
2023/01/29 01:11:05;;;;;;;76.37;36.67;;;;;;;-3.56;85.87;102656.47;5114723;28;20434;-67
2023/01/29 01:13:33;;;;;;;89.47;37.53;;;;;;;-3.63;84.28;102650.25;5116554;28;20496;-67
2023/01/29 01:16:00;;;;;;;86.87;38.80;;;;;;;-3.69;85.23;102644.88;5115401;28;20467;-67
2023/01/29 01:18:30;;;;;;;86.37;36.63;;;;;;;-3.72;85.06;102637.00;5114708;28;20457;-67
2023/01/29 01:20:58;;;;;;;70.60;36.97;;;;;;;-3.75;85.07;102636.94;5114493;28;20429;-67
2023/01/29 01:23:24;;;;;;;85.47;38.17;;;;;;;-3.78;85.28;102619.44;5114407;28;20492;-67
2023/01/29 01:25:51;;;;;;;86.90;37.13;;;;;;;-3.88;85.41;102618.41;5114468;28;20880;-67
2023/01/29 01:28:17;;;;;;;85.73;38.73;;;;;;;-3.95;86.20;102611.28;5114281;28;20510;-67
2023/01/29 01:30:43;;;;;;;93.63;40.47;;;;;;;-3.97;85.92;102605.13;5115556;28;20451;-67
2023/01/29 01:33:10;;;;;;;85.83;36.87;;;;;;;-3.91;85.31;102609.59;5115496;28;20931;-67
2023/01/29 01:35:37;;;;;;;77.30;35.50;;;;;;;-3.90;85.42;102603.53;5115725;28;20453;-67
2023/01/29 01:38:04;;;;;;;82.20;34.83;;;;;;;-3.85;85.60;102617.56;5112885;28;20469;-67
2023/01/29 01:40:31;;;;;;;84.20;34.07;;;;;;;-3.76;86.16;102609.88;5115627;28;20425;-67
2023/01/29 01:42:59;;;;;;;85.60;34.50;;;;;;;-3.70;85.74;102614.34;5115303;27;20433;-67
2023/01/29 01:45:29;;;;;;;77.50;32.70;;;;;;;-3.67;86.93;102607.41;5115289;28;20425;-67
2023/01/29 01:48:05;;;;;;;72.07;31.40;;;;;;;-3.57;85.38;102611.06;5115449;28;20398;-67
2023/01/29 01:50:45;;;;;;;77.90;33.47;;;;;;;-3.46;84.58;102616.50;5115490;28;20508;-67
2023/01/29 01:53:15;;;;;;;84.30;32.67;;;;;;;-3.41;86.22;102620.06;5115719;28;20413;-67
2023/01/29 01:55:49;;;;;;;77.67;33.40;;;;;;;-3.33;85.70;102622.81;5115681;28;20406;-67
2023/01/29 01:58:26;;;;;;;78.43;33.60;;;;;;;-3.37;84.88;102623.63;5115441;28;21045;-67
2023/01/29 02:00:54;;;;;;;69.53;34.27;;;;;;;-3.43;84.21;102617.41;5130868;27;20436;-67
2023/01/29 02:11:46;;;;;;;80.50;33.13;;;;;;;-3.42;84.27;102626.19;5114990;28;20406;-67
2023/01/29 02:14:13;;;;;;;76.73;30.73;;;;;;;-3.37;84.58;102619.28;5114929;28;20826;-67
2023/01/29 02:16:39;;;;;;;70.83;32.17;;;;;;;-3.38;83.80;102617.50;5114565;28;20468;-67
2023/01/29 02:19:18;;;;;;;69.97;29.70;;;;;;;-3.26;83.99;102612.44;5114609;28;20459;-67
2023/01/29 02:22:12;;;;;;;75.10;31.67;;;;;;;-3.31;83.39;102621.09;5113336;28;20796;-67
2023/01/29 02:24:49;;;;;;;74.73;30.83;;;;;;;-3.31;84.67;102629.84;5113260;28;20430;-67
2023/01/29 02:27:47;;;;;;;76.23;32.97;;;;;;;-3.28;85.27;102623.75;5113234;28;20487;-67
2023/01/29 02:30:29;;;;;;;69.97;32.20;;;;;;;-3.28;85.12;102624.66;5114746;28;20817;-67
2023/01/29 02:33:06;;;;;;;71.00;32.30;;;;;;;-3.33;83.25;102631.53;5114706;28;20424;-67
2023/01/29 02:35:45;;;;;;;85.00;33.07;;;;;;;-3.33;83.45;102634.16;5113136;28;20437;-67
2023/01/29 02:38:31;;;;;;;68.67;30.93;;;;;;;-3.22;83.66;102630.00;5112932;28;20476;-67
2023/01/29 02:41:10;;;;;;;69.37;30.73;;;;;;;-3.21;84.94;102623.00;5114819;28;20534;-67
2023/01/29 02:43:54;;;;;;;67.23;30.67;;;;;;;-3.30;84.55;102617.66;5112952;28;20430;-67
2023/01/29 02:46:50;;;;;;;70.73;30.87;;;;;;;-3.32;83.50;102608.88;5112930;28;20910;-67
2023/01/29 02:49:19;;;;;;;68.00;29.70;;;;;;;-3.23;83.82;102617.75;5112477;28;20481;-67
2023/01/29 02:51:54;;;;;;;67.70;29.37;;;;;;;-3.14;85.15;102613.50;5112790;28;20429;-67
2023/01/29 02:54:33;;;;;;;74.67;31.30;;;;;;;-3.09;83.73;102612.75;5114056;28;20413;-67
2023/01/29 02:57:13;;;;;;;74.13;30.13;;;;;;;-3.07;85.15;102618.84;5112676;28;20974;-67
2023/01/29 02:59:47;;;;;;;83.53;30.83;;;;;;;-3.00;84.78;102625.06;5112696;28;20545;-67
2023/01/29 03:02:19;;;;;;;72.17;30.77;;;;;;;-2.93;83.55;102626.94;5112700;28;20509;-67
2023/01/29 03:04:53;;;;;;;71.67;31.03;;;;;;;-2.95;82.96;102627.78;5112680;28;20242;-67
2023/01/29 03:07:43;;;;;;;72.53;32.80;;;;;;;-2.97;84.10;102629.47;5112637;28;20180;-67
2023/01/29 03:10:20;;;;;;;74.70;32.17;;;;;;;-3.10;82.86;102623.19;5112853;28;20445;-67
2023/01/29 03:12:54;;;;;;;73.17;30.07;;;;;;;-3.16;84.22;102615.22;5113836;28;20410;-67
2023/01/29 03:15:30;;;;;;;69.07;31.77;;;;;;;-3.24;82.79;102610.75;5112553;28;20429;-67
2023/01/29 03:18:17;;;;;;;69.33;29.67;;;;;;;-3.27;84.84;102617.69;5112327;28;20472;-67
2023/01/29 03:20:52;;;;;;;78.67;32.70;;;;;;;-3.21;83.02;102626.53;5112458;28;20973;-67
2023/01/29 03:32:08;;;;;;;80.07;32.53;;;;;;;-3.10;82.45;102645.03;5113924;28;20414;-67
2023/01/29 03:34:45;;;;;;;72.53;30.97;;;;;;;-3.17;83.45;102632.69;5113199;28;20425;-67
2023/01/29 03:37:22;;;;;;;70.90;31.13;;;;;;;-3.19;84.56;102633.50;5112231;28;20543;-67
2023/01/29 03:39:49;;;;;;;68.97;31.80;;;;;;;-3.22;85.06;102632.59;5112212;28;20457;-67
2023/01/29 03:42:47;;;;;;;82.30;31.20;;;;;;;-3.12;83.80;102633.63;5112232;28;20807;-67
2023/01/29 03:45:41;;;;;;;71.60;32.10;;;;;;;-3.00;83.43;102627.69;5112265;28;20212;-67
2023/01/29 03:48:29;;;;;;;75.00;32.30;;;;;;;-3.06;83.42;102635.50;5113721;28;20560;-66
2023/01/29 03:51:12;;;;;;;80.17;32.87;;;;;;;-3.07;82.79;102628.47;5112284;28;20436;-66
2023/01/29 03:53:53;;;;;;;79.27;32.47;;;;;;;-3.10;84.04;102623.19;5113043;28;20483;-66
2023/01/29 03:57:01;;;;;;;79.20;31.67;;;;;;;-3.16;83.09;102626.59;5113578;28;20493;-66
2023/01/29 03:59:44;;;;;;;77.13;31.83;;;;;;;-3.12;83.59;102624.91;5112629;28;20548;-66
2023/01/29 04:02:51;;;;;;;75.30;30.27;;;;;;;-3.08;84.56;102631.97;5117350;28;20402;-67
2023/01/29 04:05:21;;;;;;;70.63;33.03;;;;;;;-3.00;83.92;102628.56;5116383;28;21003;-67
2023/01/29 04:08:14;;;;;;;75.43;30.87;;;;;;;-2.86;84.01;102620.03;5116170;28;20210;-67
2023/01/29 04:10:43;;;;;;;77.40;33.30;;;;;;;-2.86;84.26;102612.19;5116777;28;20432;-67
2023/01/29 04:13:14;;;;;;;68.17;31.03;;;;;;;-2.90;84.18;102607.75;5115827;28;20528;-67
2023/01/29 04:15:49;;;;;;;82.07;34.37;;;;;;;-2.89;84.58;102597.28;5115825;28;20442;-67
2023/01/29 04:18:18;;;;;;;75.97;31.27;;;;;;;-2.82;84.07;102593.91;5115865;28;20472;-67
2023/01/29 04:21:08;;;;;;;72.03;31.20;;;;;;;-2.81;85.24;102587.78;5115762;28;20444;-67
2023/01/29 04:23:34;;;;;;;66.13;29.33;;;;;;;-2.78;83.98;102577.34;5116968;28;20803;-67
2023/01/29 04:26:12;;;;;;;73.30;29.53;;;;;;;-2.71;84.38;102580.03;5116059;28;20945;-67
2023/01/29 04:29:08;;;;;;;73.10;30.37;;;;;;;-2.66;85.27;102579.25;5117456;27;20224;-66
2023/01/29 04:31:46;;;;;;;71.10;31.00;;;;;;;-2.60;83.79;102581.94;5115581;28;20288;-66
2023/01/29 04:34:52;;;;;;;71.13;29.47;;;;;;;-2.50;84.23;102597.81;5117072;28;20413;-66
2023/01/29 04:37:31;;;;;;;60.33;26.40;;;;;;;-2.45;84.56;102583.88;5132530;27;20212;-66
2023/01/29 04:40:19;;;;;;;69.97;29.80;;;;;;;-2.40;83.00;102581.31;5117124;28;20445;-66
2023/01/29 04:42:53;;;;;;;57.10;27.97;;;;;;;-2.32;83.45;102581.38;5116872;28;20187;-66
2023/01/29 04:45:38;;;;;;;72.20;29.03;;;;;;;-2.28;84.13;102576.19;5116563;28;20197;-67
2023/01/29 04:48:25;;;;;;;70.93;28.50;;;;;;;-2.31;84.08;102568.28;5116950;28;20551;-66
2023/01/29 04:51:03;;;;;;;60.13;29.40;;;;;;;-2.28;84.10;102564.81;5116723;28;20256;-67
2023/01/29 04:53:44;;;;;;;62.50;27.90;;;;;;;-2.29;83.64;102557.84;5116663;28;20181;-67
2023/01/29 04:56:18;;;;;;;78.47;31.00;;;;;;;-2.27;83.23;102558.72;5116886;27;20184;-67
2023/01/29 04:58:53;;;;;;;69.40;27.83;;;;;;;-2.19;83.20;102563.19;5116279;28;20477;-67
2023/01/29 05:01:24;;;;;;;67.27;28.63;;;;;;;-2.19;83.61;102559.69;5116785;28;20187;-67
2023/01/29 05:03:54;;;;;;;80.47;30.23;;;;;;;-2.20;83.86;102553.56;5116455;28;20216;-67
2023/01/29 05:06:21;;;;;;;69.57;27.83;;;;;;;-2.13;82.79;102551.88;5116373;28;20639;-67
2023/01/29 05:08:50;;;;;;;73.83;29.23;;;;;;;-2.15;83.23;102551.88;5116208;28;20205;-67
2023/01/29 05:11:18;;;;;;;64.37;27.47;;;;;;;-2.10;83.22;102530.91;5116061;28;20559;-67
2023/01/29 05:13:47;;;;;;;68.90;29.53;;;;;;;-2.10;83.08;102530.03;5115938;28;20200;-67
2023/01/29 05:16:21;;;;;;;67.87;28.30;;;;;;;-2.06;83.30;102529.19;5114638;28;20192;-67
2023/01/29 05:18:47;;;;;;;63.87;27.10;;;;;;;-2.04;82.67;102528.34;5115774;28;20687;-67
2023/01/29 05:21:14;;;;;;;65.83;28.27;;;;;;;-1.98;82.61;102524.91;5115824;28;20177;-67
2023/01/29 05:23:51;;;;;;;59.67;28.43;;;;;;;-1.95;82.66;102525.78;5115614;28;20224;-67
2023/01/29 05:29:05;;;;;;;74.23;28.10;;;;;;;-1.94;83.12;102521.41;5116420;28;20544;-67
2023/01/29 05:31:31;;;;;;;65.57;28.87;;;;;;;-1.95;82.91;102514.41;5115819;28;20197;-67
2023/01/29 05:33:57;;;;;;;59.63;29.50;;;;;;;-1.88;82.67;102524.13;5115522;28;20192;-67
2023/01/29 05:36:25;;;;;;;69.07;29.73;;;;;;;-1.87;82.93;102520.59;5116025;28;20190;-67
2023/01/29 05:38:51;;;;;;;60.00;28.50;;;;;;;-1.84;82.24;102522.41;5115612;28;20215;-67
2023/01/29 05:41:19;;;;;;;65.33;28.70;;;;;;;-1.85;82.88;102515.38;5115390;28;20228;-67
2023/01/29 05:43:46;;;;;;;65.90;28.20;;;;;;;-1.84;82.56;102518.03;5115353;28;20185;-67
2023/01/29 05:46:12;;;;;;;64.97;28.67;;;;;;;-1.84;82.90;102523.28;5115868;28;20695;-67
2023/01/29 05:48:39;;;;;;;69.03;30.77;;;;;;;-1.80;82.82;102521.53;5115604;28;20201;-67
2023/01/29 05:51:05;;;;;;;74.47;30.73;;;;;;;-1.83;82.20;102534.66;5115168;28;20203;-67
2023/01/29 05:53:32;;;;;;;69.80;29.93;;;;;;;-1.78;82.44;102539.06;5115105;28;20182;-67
2023/01/29 05:56:02;;;;;;;84.87;29.60;;;;;;;-1.74;82.21;102540.00;5115079;28;20256;-67
2023/01/29 05:58:30;;;;;;;65.23;29.57;;;;;;;-1.76;82.92;102542.59;5114936;28;20296;-67
2023/01/29 06:00:57;;;;;;;61.27;28.83;;;;;;;-1.78;82.82;102546.94;5115071;28;20256;-67
2023/01/29 06:03:23;;;;;;;66.60;29.37;;;;;;;-1.74;82.46;102548.75;5115633;28;20518;-67
2023/01/29 06:05:51;;;;;;;57.20;26.50;;;;;;;-1.67;82.12;102549.69;5115015;28;20262;-67
2023/01/29 06:08:18;;;;;;;64.70;28.43;;;;;;;-1.64;81.92;102551.44;5114823;28;20212;-68
2023/01/29 06:10:44;;;;;;;60.30;30.03;;;;;;;-1.52;81.93;102555.03;5115100;28;20185;-68
2023/01/29 06:13:10;;;;;;;62.70;29.53;;;;;;;-1.59;81.86;102566.38;5115010;28;20191;-68
2023/01/29 06:15:39;;;;;;;67.47;29.33;;;;;;;-1.70;82.01;102562.75;5115029;28;20193;-67
2023/01/29 06:18:06;;;;;;;74.50;30.93;;;;;;;-1.72;82.15;102561.91;5114879;28;20719;-67
2023/01/29 06:20:32;;;;;;;70.90;30.07;;;;;;;-1.71;82.69;102567.16;5115405;28;20648;-67
2023/01/29 06:22:59;;;;;;;72.37;31.33;;;;;;;-1.65;82.63;102568.97;5114471;28;20193;-67
2023/01/29 06:25:25;;;;;;;68.80;31.47;;;;;;;-1.71;82.64;102574.16;5114559;28;20269;-67
2023/01/29 06:27:52;;;;;;;69.90;31.87;;;;;;;-1.66;81.97;102577.69;5114701;28;20184;-67
2023/01/29 06:30:18;;;;;;;65.40;30.67;;;;;;;-1.64;82.56;102568.09;5114392;28;20726;-67
2023/01/29 06:32:45;;;;;;;76.17;32.90;;;;;;;-1.63;82.72;102554.06;5114687;28;20196;-67
2023/01/29 06:35:11;;;;;;;76.90;32.07;;;;;;;-1.61;82.53;102543.59;5114365;28;20277;-68
2023/01/29 06:37:38;;;;;;;67.27;30.00;;;;;;;-1.61;82.53;102536.59;5114508;28;20205;-68
2023/01/29 06:40:05;;;;;;;60.57;29.40;;;;;;;-1.60;82.30;102538.34;5114167;28;20235;-68
2023/01/29 06:42:34;;;;;;;71.57;29.40;;;;;;;-1.62;81.85;102542.72;5114300;28;20552;-68
2023/01/29 06:45:00;;;;;;;77.20;31.37;;;;;;;-1.57;82.53;102551.50;5114737;28;20185;-68
2023/01/29 06:47:26;;;;;;;72.60;30.90;;;;;;;-1.54;82.05;102550.66;5114123;28;20189;-68
2023/01/29 06:49:53;;;;;;;63.33;28.13;;;;;;;-1.48;82.31;102558.59;5114025;28;20210;-68
2023/01/29 06:52:19;;;;;;;74.77;30.40;;;;;;;-1.44;82.01;102552.47;5114372;28;20191;-68
2023/01/29 06:54:46;;;;;;;78.53;31.73;;;;;;;-1.58;81.84;102549.75;5114309;28;20186;-68
2023/01/29 06:57:12;;;;;;;67.47;31.00;;;;;;;-1.46;81.80;102548.06;5114588;28;20185;-68
2023/01/29 06:59:39;;;;;;;71.50;32.00;;;;;;;-1.43;82.66;102545.50;5114051;28;20227;-68
2023/01/29 07:02:05;;;;;;;71.57;30.63;;;;;;;-1.43;82.18;102551.63;5113924;28;20192;-68
2023/01/29 07:04:32;;;;;;;65.23;30.57;;;;;;;-1.42;81.77;102541.97;5113902;28;20225;-68
2023/01/29 07:06:58;;;;;;;65.50;30.23;;;;;;;-1.42;81.23;102545.47;5114110;28;20191;-68
2023/01/29 07:09:25;;;;;;;72.43;31.63;;;;;;;-1.38;81.46;102546.41;5113792;28;20207;-68
2023/01/29 07:11:51;;;;;;;72.53;32.30;;;;;;;-1.35;81.84;102551.66;5114071;28;20178;-68
2023/01/29 07:14:17;;;;;;;77.47;31.97;;;;;;;-1.26;81.52;102559.63;5114301;28;20665;-68
2023/01/29 07:16:44;;;;;;;70.70;31.43;;;;;;;-1.31;81.36;102549.09;5114345;28;20176;-68
2023/01/29 07:19:10;;;;;;;69.00;31.53;;;;;;;-1.25;81.50;102542.09;5113855;28;20223;-68
2023/01/29 07:21:37;;;;;;;75.83;31.20;;;;;;;-1.30;80.80;102540.31;5113678;28;20186;-68
2023/01/29 07:24:03;;;;;;;71.87;31.40;;;;;;;-1.29;80.67;102557.84;5113641;28;20198;-68
2023/01/29 07:26:30;;;;;;;65.23;30.27;;;;;;;-1.28;81.12;102542.97;5113944;28;20255;-68
2023/01/29 07:28:56;;;;;;;66.60;28.93;;;;;;;-1.26;80.79;102543.84;5113540;28;20549;-68
2023/01/29 07:31:22;;;;;;;70.07;30.23;;;;;;;-1.30;81.38;102544.69;5113726;28;20170;-68
2023/01/29 07:33:49;;;;;;;62.83;30.73;;;;;;;-1.22;80.72;102564.03;5113544;28;20225;-68
2023/01/29 07:36:15;;;;;;;70.70;30.93;;;;;;;-1.21;80.53;102559.66;5115825;28;20656;-68
2023/01/29 07:38:42;;;;;;;73.90;31.77;;;;;;;-1.21;80.75;102559.66;5118040;28;20704;-68
2023/01/29 07:41:10;;;;;;;66.77;31.13;;;;;;;-1.25;80.57;102558.75;5117658;28;20182;-68
2023/01/29 07:43:36;;;;;;;72.37;32.10;;;;;;;-1.20;80.47;102548.25;5117645;28;20186;-68
2023/01/29 07:46:03;;;;;;;72.77;33.43;;;;;;;-1.17;80.19;102548.31;5117605;28;20187;-68
2023/01/29 07:48:30;;;;;;;77.10;33.13;;;;;;;-1.19;80.90;102557.94;5117534;28;20698;-68
2023/01/29 07:50:57;;;;;;;80.83;34.67;;;;;;;-1.17;80.93;102549.19;5117836;28;20280;-68
2023/01/29 07:53:24;;;;;;;75.50;33.63;;;;;;;-1.17;80.71;102553.56;5117464;28;20182;-68
2023/01/29 07:55:50;;;;;;;71.97;33.63;;;;;;;-1.14;81.14;102545.69;5117768;27;20181;-68
2023/01/29 07:58:17;;;;;;;80.97;34.40;;;;;;;-1.19;80.99;102548.28;5117487;28;20580;-68
2023/01/29 08:00:43;;;;;;;79.43;31.47;;;;;;;-1.19;80.53;102542.16;5117334;28;20186;-68
2023/01/29 08:03:12;;;;;;;64.47;31.83;;;;;;;-1.20;80.85;102538.63;5117592;28;20178;-68
2023/01/29 08:05:39;;;;;;;69.90;32.83;;;;;;;-1.08;80.16;102541.34;5117256;28;20209;-68
2023/01/29 08:08:05;;;;;;;69.47;32.57;;;;;;;-1.09;80.98;102536.94;5117442;28;20641;-69
2023/01/29 08:10:34;;;;;;;78.07;31.43;;;;;;;-1.10;79.87;102543.09;5117542;28;20190;-68
2023/01/29 08:13:03;;;;;;;69.53;31.33;;;;;;;-1.09;80.60;102541.34;5117495;28;20190;-68
2023/01/29 08:15:30;;;;;;;73.70;30.90;;;;;;;-1.09;80.30;102536.06;5117060;28;20182;-68
2023/01/29 08:17:56;;;;;;;70.73;32.07;;;;;;;-1.08;79.87;102537.81;5116955;28;20733;-68
2023/01/29 08:20:43;;;;;;;68.80;29.33;;;;;;;-1.02;80.16;102527.34;5117653;28;20182;-68
2023/01/29 08:23:13;;;;;;;63.33;28.70;;;;;;;-1.06;80.49;102522.94;5117242;28;20560;-68
2023/01/29 08:25:40;;;;;;;76.60;31.03;;;;;;;-1.12;80.64;102528.19;5117052;28;20621;-68
2023/01/29 08:28:07;;;;;;;68.93;31.40;;;;;;;-1.11;80.18;102528.16;5116831;28;20283;-69
2023/01/29 08:30:34;;;;;;;70.30;29.90;;;;;;;-1.08;80.03;102529.94;5117128;28;20186;-68
2023/01/29 08:33:03;;;;;;;68.93;30.80;;;;;;;-1.02;80.09;102526.47;5117067;27;20198;-68
2023/01/29 08:35:29;;;;;;;70.70;29.97;;;;;;;-1.08;80.19;102520.31;5117259;28;20592;-68
2023/01/29 08:37:58;;;;;;;70.93;31.80;;;;;;;-1.03;80.61;102511.56;5116503;28;20194;-68
2023/01/29 08:40:26;;;;;;;74.63;31.60;;;;;;;-1.04;80.85;102512.44;5117150;28;20641;-68
2023/01/29 08:42:59;;;;;;;66.27;31.10;;;;;;;-1.08;80.42;102504.53;5116549;28;20269;-68
2023/01/29 08:45:29;;;;;;;76.00;30.97;;;;;;;-1.06;80.55;102494.03;5116566;28;20178;-68
2023/01/29 08:47:55;;;;;;;69.33;29.70;;;;;;;-1.11;81.10;102498.38;5115870;27;20664;-68
2023/01/29 08:50:22;;;;;;;69.23;30.67;;;;;;;-1.01;80.66;102496.66;5116698;28;20193;-68
2023/01/29 08:52:48;;;;;;;76.77;31.53;;;;;;;-1.02;80.28;102493.16;5116970;28;20178;-68
2023/01/29 08:55:14;;;;;;;74.37;30.50;;;;;;;-0.91;79.57;102498.47;5116718;28;20178;-68
2023/01/29 08:57:41;;;;;;;63.00;29.03;;;;;;;-0.90;79.63;102505.50;5116677;28;20590;-68
2023/01/29 09:00:09;;;;;;;71.17;30.87;;;;;;;-0.85;79.15;102503.75;5116508;28;20650;-68
2023/01/29 09:02:36;;;;;;;69.33;29.50;;;;;;;-0.87;80.15;102493.22;5115329;28;20190;-68
2023/01/29 09:05:03;;;;;;;73.33;30.03;;;;;;;-0.81;79.81;102496.75;5116447;28;20643;-68
2023/01/29 09:07:29;;;;;;;89.90;30.73;;;;;;;-0.94;79.80;102486.19;5116739;28;20183;-68
2023/01/29 09:09:56;;;;;;;67.17;29.13;;;;;;;-0.88;80.19;102488.84;5116010;28;20199;-68
2023/01/29 09:12:22;;;;;;;73.90;30.43;;;;;;;-0.83;79.51;102491.50;5116377;28;20554;-68
2023/01/29 09:14:49;;;;;;;66.23;30.30;;;;;;;-0.77;79.37;102477.47;5116214;28;20181;-68
2023/01/29 09:17:15;;;;;;;65.30;28.87;;;;;;;-0.80;78.50;102474.84;5115965;28;20273;-68
2023/01/29 09:19:41;;;;;;;67.70;29.10;;;;;;;-0.82;79.82;102474.84;5114539;28;20212;-68
2023/01/29 09:22:08;;;;;;;65.10;30.03;;;;;;;-0.80;79.05;102474.84;5115968;28;20265;-68
2023/01/29 09:24:37;;;;;;;70.07;31.17;;;;;;;-0.77;79.68;102467.84;5116111;28;20625;-68
2023/01/29 09:27:04;;;;;;;66.63;29.67;;;;;;;-0.68;78.93;102453.84;5116007;28;20616;-68
2023/01/29 09:29:31;;;;;;;66.67;30.23;;;;;;;-0.66;78.71;102467.88;5115865;28;20229;-68
2023/01/29 09:32:02;;;;;;;61.73;29.40;;;;;;;-0.65;78.63;102467.91;5115837;28;20671;-68
2023/01/29 09:34:28;;;;;;;69.40;29.40;;;;;;;-0.62;79.25;102461.75;5115653;28;20192;-68
2023/01/29 09:36:54;;;;;;;71.83;31.20;;;;;;;-0.60;79.18;102464.38;5116204;28;20191;-68
2023/01/29 09:39:21;;;;;;;61.50;29.43;;;;;;;-0.59;78.23;102458.25;5115287;28;20216;-68
2023/01/29 09:41:55;;;;;;;66.23;29.03;;;;;;;-0.52;78.82;102465.28;5115385;28;20190;-68
2023/01/29 09:44:39;;;;;;;75.47;29.73;;;;;;;-0.41;78.16;102467.94;5115707;28;20184;-68
2023/01/29 09:47:12;;;;;;;69.10;31.07;;;;;;;-0.51;78.62;102464.41;5115610;28;20579;-68
2023/01/29 09:49:44;;;;;;;69.97;30.60;;;;;;;-0.44;78.40;102466.19;5116139;28;20225;-68
2023/01/29 09:52:17;;;;;;;62.50;28.17;;;;;;;-0.39;77.65;102461.81;5115777;28;20182;-68
2023/01/29 09:55:00;;;;;;;66.20;28.77;;;;;;;-0.41;78.05;102468.81;5115735;28;20178;-68
2023/01/29 09:57:38;;;;;;;65.07;28.50;;;;;;;-0.43;78.69;102466.19;5115046;28;20212;-68
2023/01/29 10:00:05;;;;;;;63.97;28.10;;;;;;;-0.35;77.97;102470.59;5114639;28;20221;-68
2023/01/29 10:02:58;;;;;;;67.60;26.87;;;;;;;-0.30;78.61;102463.56;5113954;28;20167;-68
2023/01/29 10:05:43;;;;;;;59.83;27.40;;;;;;;-0.28;78.97;102459.19;5115288;28;20616;-69
2023/01/29 10:08:28;;;;;;;62.67;27.70;;;;;;;-0.33;78.49;102467.09;5115116;28;20581;-68
2023/01/29 10:11:16;;;;;;;60.87;27.37;;;;;;;-0.29;77.70;102457.41;5114105;28;20242;-69
2023/01/29 10:13:52;;;;;;;62.37;27.80;;;;;;;-0.35;77.09;102466.19;5115679;28;20546;-68
2023/01/29 10:16:48;;;;;;;57.60;27.73;;;;;;;-0.25;77.60;102467.97;5114804;28;20183;-69
2023/01/29 10:19:31;;;;;;;68.00;28.90;;;;;;;-0.24;77.18;102468.81;5113315;28;20225;-68
2023/01/29 10:22:22;;;;;;;52.97;27.00;;;;;;;-0.13;76.95;102474.13;5114879;28;20192;-68
2023/01/29 10:25:17;;;;;;;64.83;28.53;;;;;;;-0.14;78.07;102468.00;5114897;28;20196;-68
2023/01/29 10:27:51;;;;;;;55.67;25.33;;;;;;;-0.12;76.78;102460.06;5093987;28;20321;-68
2023/01/29 10:30:26;;;;;;;65.43;32.35;;;;;;;0.07;76.84;102453.06;5114230;28;20416;-69
2023/01/29 10:32:56;;;;;;;65.63;30.27;;;;;;;0.02;76.32;102446.91;5114493;28;20226;-69
2023/01/29 10:35:29;;;;;;;68.40;28.63;;;;;;;0.01;75.87;102453.94;5114781;28;20536;-69
2023/01/29 10:38:01;;;;;;;63.50;28.13;;;;;;;0.11;75.44;102452.19;5114549;28;20173;-68
2023/01/29 10:40:33;;;;;;;64.60;29.37;;;;;;;0.12;76.33;102440.75;5114181;28;20224;-69
2023/01/29 10:43:08;;;;;;;74.23;29.30;;;;;;;0.12;75.66;102443.38;5114633;28;20191;-69
2023/01/29 10:45:49;;;;;;;67.37;29.53;;;;;;;0.23;76.80;102438.13;5113435;28;20171;-69
2023/01/29 10:48:34;;;;;;;60.60;28.83;;;;;;;0.25;76.29;102428.47;5114473;28;20299;-69
2023/01/29 10:51:35;;;;;;;60.07;29.37;;;;;;;0.28;76.53;102424.06;5114236;28;20177;-69
2023/01/29 10:54:20;;;;;;;61.33;28.07;;;;;;;0.29;75.86;102417.03;5097033;28;20208;-69
2023/01/29 10:56:55;;;;;;;65.13;28.10;;;;;;;0.36;75.89;102413.50;5114493;28;20180;-69
2023/01/29 10:59:30;;;;;;;64.20;28.83;;;;;;;0.37;76.22;102429.31;5113966;28;20741;-69
2023/01/29 11:01:58;;;;;;;59.27;26.97;;;;;;;0.40;75.07;102416.13;5114155;28;20186;-69
2023/01/29 11:04:27;;;;;;;62.87;30.23;;;;;;;0.38;75.99;102417.91;5114146;28;20193;-69
2023/01/29 11:06:53;;;;;;;74.60;30.03;;;;;;;0.37;75.32;102407.38;5113915;28;20189;-69
2023/01/29 11:09:43;;;;;;;64.77;29.17;;;;;;;0.32;76.17;102404.72;5113956;28;20595;-69
2023/01/29 11:12:15;;;;;;;66.97;27.53;;;;;;;0.33;75.56;102402.97;5114008;28;20194;-69
2023/01/29 11:14:47;;;;;;;60.37;26.53;;;;;;;0.37;76.39;102391.56;5114416;28;20179;-69
2023/01/29 11:17:18;;;;;;;53.47;28.20;;;;;;;0.39;75.98;102389.78;5114224;28;20177;-69
2023/01/29 11:19:47;;;;;;;61.53;26.90;;;;;;;0.38;76.27;102380.13;5113588;28;20205;-69
2023/01/29 11:22:27;;;;;;;65.53;27.67;;;;;;;0.41;75.20;102377.50;5113493;28;20220;-69
2023/01/29 11:25:27;;;;;;;60.50;28.17;;;;;;;0.41;76.21;102382.75;5114200;28;20265;-69
2023/01/29 11:27:56;;;;;;;68.17;28.47;;;;;;;0.33;75.83;102369.59;5059593;28;20208;-69
2023/01/29 11:30:27;;;;;;;55.87;28.30;;;;;;;0.27;75.27;102371.38;5114439;28;20558;-69
2023/01/29 11:33:11;;;;;;;65.07;28.97;;;;;;;0.24;75.60;102367.00;5114196;28;20189;-69
2023/01/29 11:35:37;;;;;;;52.97;27.53;;;;;;;0.19;75.92;102367.00;5113966;28;20171;-69
2023/01/29 11:38:24;;;;;;;65.27;28.23;;;;;;;0.23;75.16;102372.25;5113829;28;20214;-68
2023/01/29 11:40:51;;;;;;;53.57;27.30;;;;;;;0.33;75.95;102363.44;5113594;28;20543;-69
2023/01/29 11:43:29;;;;;;;55.67;27.57;;;;;;;0.27;75.42;102361.72;5113819;28;20191;-69
2023/01/29 11:46:05;;;;;;;60.47;26.70;;;;;;;0.28;76.08;102347.66;5113562;28;20267;-69
2023/01/29 11:48:50;;;;;;;67.47;29.33;;;;;;;0.34;75.34;102346.78;5113462;28;20218;-69
2023/01/29 11:51:28;;;;;;;55.70;26.53;;;;;;;0.42;75.26;102334.44;5113912;28;20626;-69
2023/01/29 11:53:58;;;;;;;57.03;25.37;;;;;;;0.36;75.64;102335.34;5113712;28;20595;-69
2023/01/29 11:56:45;;;;;;;64.87;30.07;;;;;;;0.32;74.57;102330.09;5113913;28;20188;-69
2023/01/29 11:59:36;;;;;;;60.77;29.00;;;;;;;0.36;75.33;102321.28;5113806;28;20209;-69